Pronóstico
Mapa Interactivo
Aviación
Climatología
Hidrometeorología
Agrometeorología
Estaciones Automáticas
Transparencia
OMM WMO
Portada
Institución
Noticias
Imágenes
Tsunami
Historial
Boletines y Alertas
Contactos
Buscar Contenidos
Informe del Tiempo

                                                                                                                        SANTO DOMINGO 24 DE ABRIL DE 2018

                                                                                                                                                AEROP. INT. LAS AMERICAS JFPG-

 

FTDR31 MDSD 241600Z
TAF 

TAF MDPP 241600Z 2418/2518 07010KT 9999 SCT020 BECMG 2420/2422 13010KT=

TAF MDST 241600Z 2418/2518 12010KT 9999 SCT023 PROB30 2418/2500 8000 -TSRA FEW016CB BKN018=

TAF MDPC 241600Z 2418/2518 10015KT 9999 FEW025 PROB30 2421/2503 8000 VCSH SCT022 SCT080=

TAF MDBH 241600Z 2418/2518 13015KT 9999 FEW022CB FEW024 BECMG 2507/2509 27005KT=

TAF MDJB 241600Z 2418/2518 17010KT 9999 SCT020 SCT080 PROB30   TEMPO 2420/2501 7000 -TSRA FEW014CB BKN016 SCT070 BECMG 2500/2502 00000KT=   

TAF MDSD 241600Z 2418/2518 16010KT 9999 FEW018CB SCT020 SCT070 PROB40 2418/2500 7000 -TSRA FEW014CB BKN016 SCT070=

TAF MDLR 241600Z 2418/2518 12012KT 9999 SCT018 SCT070 PROB40 2418/2500 6000 -TSRA FEW014CB BKN016 BKN070 BECMG 2500/2502 00000KT=

TAF MDCY 241600Z 2418/2518 09010KT 9999 SCT017 PROB40 2418/2500 8000 -TSRA FEW015CB BKN016=

MDPP AEROPUERTO INTERNACIONAL LA UNION PUERTO PLATA

MDST AEROPUERTO INTERNACIONAL DE SANTIAGO

MDPC AEROPUERTO INTERNACIONAL PUNTA CANA

MDBH AEROPUERTO INTERNACIONAL DE BARAHONA

MDJB AEROPUERTO INTERNACIONAL JOAQUIN BALAGUER

MDSD AEROPUERTO INTERNACIONAL LAS AMERICAS

MDLR AEROPUERTO INTERNACIONAL LA ROMANA

MDCY AEROPUERTO INTERNACIONAL DE CATEY

 

MDSD //JOSELINA NEPOMUCENO.

MDPP //L. CAMACHO

MDST // S.GONZALEZ

MDPC // MARTE

MDBH // VICTOR

MDJB  // BELKIS MEDRANO

MDLR // BENITO DE JESUS. 

MDCY // AURELY  LOPEZ M.